FDX500 LEMD-EGLL
Flight info
| Callsign | FDX500 |
|---|---|
| Flight time | 1h 36m |
| Altitude | 37000 |
| Route | SIE N858 DGO N867 NENEM DCT DIDIG UP87 ROXOG |
| Aircraft | MD11/H-SDE1E2E3FGHIJ2J3J4J5M1RWXY/LB1D1 |
Departure
| Time | 2026-04-30 19:41 |
|---|---|
| Airport | Adolfo Suárez Madrid–Barajas Airport (LEMD) |
Arrival
| Time | 2026-04-30 21:18 |
|---|---|
| Airport | London Heathrow Airport (EGLL) |
| Time | Latitude | Longitude | Altitude | Speed | Heading |
|---|---|---|---|---|---|
| 2026-04-30 19:10 | 40.45503 | -3.57079 | 1988 ft | 0 kts | 135° |
| 2026-04-30 19:25 | 40.45528 | -3.57133 | 1989 ft | 2 kts | 94° |
| 2026-04-30 19:26 | 40.45512 | -3.57186 | 1988 ft | 3 kts | 43° |
| 2026-04-30 19:26 | 40.45508 | -3.57190 | 1988 ft | 0 kts | 44° |
| 2026-04-30 19:31 | 40.45553 | -3.57134 | 1990 ft | 15 kts | 43° |
| 2026-04-30 19:31 | 40.45642 | -3.57022 | 1991 ft | 18 kts | 44° |
| 2026-04-30 19:31 | 40.45786 | -3.56817 | 1991 ft | 13 kts | 62° |
| 2026-04-30 19:32 | 40.45802 | -3.56712 | 1989 ft | 12 kts | 86° |
| 2026-04-30 19:32 | 40.45810 | -3.56605 | 1989 ft | 12 kts | 77° |
| 2026-04-30 19:32 | 40.45866 | -3.56541 | 1990 ft | 11 kts | 13° |
| 2026-04-30 19:32 | 40.45945 | -3.56529 | 1989 ft | 12 kts | 5° |
| 2026-04-30 19:33 | 40.46040 | -3.56520 | 1989 ft | 15 kts | 4° |
| 2026-04-30 19:33 | 40.46158 | -3.56510 | 1988 ft | 18 kts | 4° |
| 2026-04-30 19:33 | 40.46298 | -3.56499 | 1988 ft | 22 kts | 4° |
| 2026-04-30 19:33 | 40.46471 | -3.56484 | 1988 ft | 27 kts | 4° |
| 2026-04-30 19:34 | 40.46676 | -3.56472 | 1988 ft | 32 kts | 2° |
| 2026-04-30 19:34 | 40.46902 | -3.56455 | 1989 ft | 32 kts | 4° |
| 2026-04-30 19:34 | 40.47226 | -3.56588 | 1990 ft | 22 kts | 322° |
| 2026-04-30 19:35 | 40.47338 | -3.56706 | 1988 ft | 19 kts | 322° |
| 2026-04-30 19:35 | 40.47443 | -3.56811 | 1992 ft | 20 kts | 322° |
| 2026-04-30 19:35 | 40.47553 | -3.56923 | 1988 ft | 19 kts | 322° |
| 2026-04-30 19:35 | 40.47653 | -3.57026 | 1989 ft | 17 kts | 322° |
| 2026-04-30 19:36 | 40.47740 | -3.57115 | 1988 ft | 15 kts | 322° |
| 2026-04-30 19:36 | 40.47814 | -3.57190 | 1988 ft | 13 kts | 322° |
| 2026-04-30 19:36 | 40.47978 | -3.57355 | 1991 ft | 17 kts | 322° |
| 2026-04-30 19:37 | 40.48082 | -3.57460 | 1991 ft | 21 kts | 323° |
| 2026-04-30 19:37 | 40.48201 | -3.57580 | 1990 ft | 21 kts | 322° |
| 2026-04-30 19:37 | 40.48315 | -3.57696 | 1989 ft | 21 kts | 322° |
| 2026-04-30 19:37 | 40.48439 | -3.57814 | 1990 ft | 23 kts | 328° |
| 2026-04-30 19:38 | 40.48579 | -3.57914 | 1989 ft | 22 kts | 338° |
| 2026-04-30 19:38 | 40.48726 | -3.57936 | 1988 ft | 21 kts | 359° |
| 2026-04-30 19:38 | 40.48875 | -3.57938 | 1988 ft | 22 kts | 360° |
| 2026-04-30 19:38 | 40.49024 | -3.57937 | 1991 ft | 19 kts | 0° |
| 2026-04-30 19:39 | 40.49130 | -3.57928 | 1989 ft | 13 kts | 21° |
| 2026-04-30 19:39 | 40.49166 | -3.57845 | 1989 ft | 10 kts | 81° |
| 2026-04-30 19:39 | 40.49170 | -3.57767 | 1991 ft | 8 kts | 88° |
| 2026-04-30 19:39 | 40.49171 | -3.57693 | 1991 ft | 10 kts | 89° |
| 2026-04-30 19:40 | 40.49192 | -3.57578 | 1989 ft | 17 kts | 68° |
| 2026-04-30 19:40 | 40.49269 | -3.57469 | 1988 ft | 15 kts | 12° |
| 2026-04-30 19:40 | 40.49302 | -3.57465 | 1991 ft | 5 kts | 2° |
| 2026-04-30 19:40 | 40.49543 | -3.57465 | 1988 ft | 73 kts | 360° |
| 2026-04-30 19:41 | 40.50307 | -3.57469 | 1988 ft | 144 kts | 359° |
| 2026-04-30 19:41 | 40.51510 | -3.57480 | 1992 ft | 197 kts | 358° |
| 2026-04-30 19:41 | 40.52942 | -3.57464 | 2403 ft | 212 kts | 359° |
| 2026-04-30 19:41 | 40.54370 | -3.57462 | 3460 ft | 192 kts | 359° |
| 2026-04-30 19:42 | 40.55733 | -3.57475 | 4316 ft | 197 kts | 358° |
| 2026-04-30 19:42 | 40.57126 | -3.57490 | 5093 ft | 203 kts | 357° |
| 2026-04-30 19:42 | 40.58630 | -3.57509 | 5464 ft | 230 kts | 357° |
| 2026-04-30 19:42 | 40.60234 | -3.57197 | 6079 ft | 238 kts | 17° |
| 2026-04-30 19:43 | 40.61789 | -3.56384 | 6710 ft | 244 kts | 22° |
| 2026-04-30 19:43 | 40.63409 | -3.55607 | 7267 ft | 258 kts | 9° |
| 2026-04-30 19:43 | 40.65227 | -3.55419 | 7851 ft | 265 kts | 357° |
| 2026-04-30 19:44 | 40.68983 | -3.55545 | 9329 ft | 275 kts | 355° |
| 2026-04-30 19:44 | 40.70917 | -3.55634 | 10065 ft | 281 kts | 355° |
| 2026-04-30 19:44 | 40.72886 | -3.55724 | 10742 ft | 286 kts | 354° |
| 2026-04-30 19:44 | 40.74865 | -3.55885 | 11342 ft | 294 kts | 352° |
| 2026-04-30 19:45 | 40.76931 | -3.56110 | 11997 ft | 299 kts | 352° |
| 2026-04-30 19:45 | 40.79026 | -3.56350 | 12746 ft | 303 kts | 351° |
| 2026-04-30 19:45 | 40.81135 | -3.56593 | 13499 ft | 306 kts | 351° |
| 2026-04-30 19:45 | 40.83276 | -3.56840 | 14204 ft | 310 kts | 351° |
| 2026-04-30 19:46 | 40.85435 | -3.57088 | 14870 ft | 313 kts | 351° |
| 2026-04-30 19:46 | 40.87622 | -3.57338 | 15522 ft | 317 kts | 351° |
| 2026-04-30 19:46 | 40.89833 | -3.57591 | 16160 ft | 321 kts | 350° |
| 2026-04-30 19:46 | 40.92070 | -3.57850 | 16475 ft | 338 kts | 350° |
| 2026-04-30 19:47 | 40.94488 | -3.58134 | 16622 ft | 359 kts | 351° |
| 2026-04-30 19:47 | 40.96170 | -3.58331 | 16720 ft | 373 kts | 351° |
| 2026-04-30 19:47 | 40.99753 | -3.58745 | 16897 ft | 399 kts | 351° |
| 2026-04-30 19:47 | 41.02575 | -3.59067 | 17110 ft | 413 kts | 351° |
| 2026-04-30 19:48 | 41.05414 | -3.59385 | 17677 ft | 417 kts | 351° |
| 2026-04-30 19:48 | 41.08310 | -3.59708 | 18305 ft | 420 kts | 351° |
| 2026-04-30 19:48 | 41.11232 | -3.60036 | 18857 ft | 422 kts | 351° |
| 2026-04-30 19:48 | 41.14166 | -3.60362 | 19371 ft | 424 kts | 352° |
| 2026-04-30 19:49 | 41.17134 | -3.60482 | 19852 ft | 430 kts | 359° |
| 2026-04-30 19:49 | 41.23027 | -3.58653 | 20812 ft | 444 kts | 20° |
| 2026-04-30 19:49 | 41.25843 | -3.56941 | 21303 ft | 448 kts | 23° |
| 2026-04-30 19:50 | 41.28644 | -3.55078 | 21804 ft | 451 kts | 24° |
| 2026-04-30 19:50 | 41.31453 | -3.53197 | 22336 ft | 453 kts | 24° |
| 2026-04-30 19:50 | 41.34291 | -3.51332 | 22854 ft | 456 kts | 23° |
| 2026-04-30 19:50 | 41.37160 | -3.49489 | 23366 ft | 459 kts | 22° |
| 2026-04-30 19:51 | 41.40024 | -3.47681 | 23823 ft | 462 kts | 22° |
| 2026-04-30 19:51 | 41.42981 | -3.45831 | 24265 ft | 465 kts | 22° |
| 2026-04-30 19:51 | 41.45890 | -3.44018 | 24683 ft | 469 kts | 21° |
| 2026-04-30 19:51 | 41.48857 | -3.42173 | 25011 ft | 475 kts | 22° |
| 2026-04-30 19:52 | 41.51898 | -3.40363 | 25378 ft | 480 kts | 21° |
| 2026-04-30 19:52 | 41.54984 | -3.38616 | 25862 ft | 482 kts | 21° |
| 2026-04-30 19:52 | 41.58090 | -3.36897 | 26306 ft | 485 kts | 20° |
| 2026-04-30 19:52 | 41.61230 | -3.35172 | 26753 ft | 488 kts | 20° |
| 2026-04-30 19:53 | 41.64377 | -3.33442 | 27194 ft | 491 kts | 20° |
| 2026-04-30 19:53 | 41.67547 | -3.31693 | 27640 ft | 494 kts | 20° |
| 2026-04-30 19:53 | 41.70704 | -3.29945 | 28288 ft | 483 kts | 22° |
| 2026-04-30 19:53 | 41.73812 | -3.28217 | 28749 ft | 487 kts | 22° |
| 2026-04-30 19:54 | 41.76953 | -3.26468 | 29186 ft | 490 kts | 22° |
| 2026-04-30 19:54 | 41.80100 | -3.24713 | 29593 ft | 493 kts | 22° |
| 2026-04-30 19:54 | 41.83272 | -3.22942 | 29982 ft | 496 kts | 22° |
| 2026-04-30 19:54 | 41.86465 | -3.21157 | 30322 ft | 498 kts | 22° |
| 2026-04-30 19:55 | 41.89677 | -3.19361 | 30647 ft | 500 kts | 22° |
| 2026-04-30 19:55 | 41.92889 | -3.17562 | 31047 ft | 500 kts | 22° |
| 2026-04-30 19:55 | 41.96103 | -3.15760 | 31455 ft | 499 kts | 21° |
| 2026-04-30 19:55 | 41.99306 | -3.13962 | 31869 ft | 499 kts | 22° |
| 2026-04-30 19:56 | 42.02508 | -3.12164 | 32260 ft | 498 kts | 22° |
| 2026-04-30 19:56 | 42.05663 | -3.10390 | 32641 ft | 497 kts | 22° |
| 2026-04-30 19:56 | 42.08897 | -3.08569 | 33028 ft | 497 kts | 22° |
| 2026-04-30 19:56 | 42.12083 | -3.06774 | 33362 ft | 497 kts | 22° |
| 2026-04-30 19:57 | 42.15230 | -3.04998 | 33706 ft | 496 kts | 22° |
| 2026-04-30 19:57 | 42.18409 | -3.03202 | 34061 ft | 495 kts | 22° |
| 2026-04-30 19:57 | 42.21588 | -3.01404 | 34354 ft | 495 kts | 22° |
| 2026-04-30 19:57 | 42.24761 | -2.99609 | 34644 ft | 494 kts | 22° |
| 2026-04-30 19:58 | 42.27928 | -2.97809 | 34909 ft | 493 kts | 22° |
| 2026-04-30 19:58 | 42.31092 | -2.96004 | 35176 ft | 493 kts | 22° |
| 2026-04-30 19:58 | 42.34246 | -2.94203 | 35432 ft | 492 kts | 22° |
| 2026-04-30 19:58 | 42.37404 | -2.92401 | 35681 ft | 492 kts | 21° |
| 2026-04-30 19:59 | 42.40560 | -2.90601 | 35949 ft | 490 kts | 21° |
| 2026-04-30 19:59 | 42.43729 | -2.88930 | 36161 ft | 488 kts | 15° |
| 2026-04-30 19:59 | 42.50377 | -2.87648 | 36597 ft | 481 kts | 356° |
| 2026-04-30 20:00 | 42.53719 | -2.87885 | 36780 ft | 480 kts | 353° |
| 2026-04-30 20:00 | 42.57041 | -2.88270 | 37015 ft | 479 kts | 352° |
| 2026-04-30 20:00 | 42.60324 | -2.88638 | 37097 ft | 480 kts | 353° |
| 2026-04-30 20:01 | 42.70368 | -2.89396 | 37131 ft | 482 kts | 355° |
| 2026-04-30 20:01 | 42.77081 | -2.89746 | 37138 ft | 482 kts | 355° |
| 2026-04-30 20:02 | 42.87145 | -2.90261 | 37140 ft | 482 kts | 355° |
| 2026-04-30 20:03 | 42.97214 | -2.90793 | 37142 ft | 483 kts | 355° |
| 2026-04-30 20:03 | 43.03918 | -2.91148 | 37152 ft | 481 kts | 355° |
| 2026-04-30 20:04 | 43.10624 | -2.91505 | 37154 ft | 481 kts | 355° |
| 2026-04-30 20:05 | 43.20621 | -2.92039 | 37165 ft | 481 kts | 355° |
| 2026-04-30 20:05 | 43.30631 | -2.92696 | 37153 ft | 478 kts | 349° |
| 2026-04-30 20:06 | 43.37134 | -2.94373 | 37152 ft | 475 kts | 343° |
| 2026-04-30 20:06 | 43.43545 | -2.96507 | 37164 ft | 473 kts | 343° |
| 2026-04-30 20:07 | 43.49955 | -2.98607 | 37163 ft | 473 kts | 343° |
| 2026-04-30 20:08 | 43.59550 | -3.01643 | 37169 ft | 473 kts | 343° |
| 2026-04-30 20:08 | 43.65964 | -3.03659 | 37158 ft | 472 kts | 343° |
| 2026-04-30 20:09 | 43.72382 | -3.05598 | 37167 ft | 472 kts | 345° |
| 2026-04-30 20:09 | 43.82060 | -3.08385 | 37161 ft | 474 kts | 345° |
| 2026-04-30 20:10 | 43.91739 | -3.11179 | 37166 ft | 473 kts | 345° |
| 2026-04-30 20:11 | 44.01411 | -3.13980 | 37169 ft | 473 kts | 346° |
| 2026-04-30 20:11 | 44.07989 | -3.14489 | 37160 ft | 479 kts | 4° |
| 2026-04-30 20:12 | 44.14466 | -3.12082 | 37169 ft | 485 kts | 18° |
| 2026-04-30 20:12 | 44.17625 | -3.10414 | 37170 ft | 486 kts | 18° |
| 2026-04-30 20:13 | 44.23937 | -3.07206 | 37168 ft | 484 kts | 16° |
| 2026-04-30 20:13 | 44.30328 | -3.04270 | 37166 ft | 483 kts | 14° |
| 2026-04-30 20:14 | 44.36723 | -3.01455 | 37162 ft | 481 kts | 14° |
| 2026-04-30 20:14 | 44.43108 | -2.98651 | 37168 ft | 480 kts | 14° |
| 2026-04-30 20:15 | 44.49482 | -2.95835 | 37166 ft | 480 kts | 14° |
| 2026-04-30 20:15 | 44.55852 | -2.93008 | 37164 ft | 480 kts | 14° |
| 2026-04-30 20:16 | 44.61149 | -2.90651 | 37168 ft | 479 kts | 14° |
| 2026-04-30 20:16 | 44.67513 | -2.87814 | 37163 ft | 479 kts | 14° |
| 2026-04-30 20:17 | 44.74899 | -2.84514 | 37159 ft | 479 kts | 14° |
| 2026-04-30 20:17 | 44.80218 | -2.82132 | 37160 ft | 479 kts | 14° |
| 2026-04-30 20:18 | 44.86575 | -2.79279 | 37162 ft | 479 kts | 14° |
| 2026-04-30 20:18 | 44.92891 | -2.76422 | 37163 ft | 479 kts | 15° |
| 2026-04-30 20:19 | 44.99251 | -2.73542 | 37163 ft | 479 kts | 15° |
| 2026-04-30 20:19 | 45.05589 | -2.70674 | 37161 ft | 478 kts | 15° |
| 2026-04-30 20:20 | 45.11931 | -2.67801 | 37164 ft | 478 kts | 14° |
| 2026-04-30 20:20 | 45.18260 | -2.64927 | 37162 ft | 476 kts | 14° |
| 2026-04-30 20:21 | 45.24567 | -2.62056 | 37162 ft | 475 kts | 14° |
| 2026-04-30 20:21 | 45.30864 | -2.59185 | 37163 ft | 475 kts | 14° |
| 2026-04-30 20:22 | 45.37155 | -2.56308 | 37168 ft | 475 kts | 15° |
| 2026-04-30 20:22 | 45.43403 | -2.53444 | 37163 ft | 474 kts | 15° |
| 2026-04-30 20:23 | 45.49681 | -2.50560 | 37157 ft | 474 kts | 15° |
| 2026-04-30 20:23 | 45.55958 | -2.47670 | 37164 ft | 474 kts | 15° |
| 2026-04-30 20:24 | 45.62227 | -2.44776 | 37156 ft | 473 kts | 15° |
| 2026-04-30 20:24 | 45.68499 | -2.41868 | 37160 ft | 473 kts | 15° |
| 2026-04-30 20:25 | 45.77893 | -2.37486 | 37159 ft | 473 kts | 15° |
| 2026-04-30 20:26 | 45.87275 | -2.33113 | 37165 ft | 472 kts | 15° |
| 2026-04-30 20:26 | 45.96606 | -2.28753 | 37156 ft | 471 kts | 16° |
| 2026-04-30 20:27 | 46.09248 | -2.23919 | 37153 ft | 469 kts | 7° |
| 2026-04-30 20:28 | 46.22097 | -2.20948 | 37154 ft | 469 kts | 7° |
| 2026-04-30 20:30 | 46.38202 | -2.17010 | 37152 ft | 469 kts | 8° |
| 2026-04-30 20:31 | 46.57535 | -2.12228 | 37150 ft | 471 kts | 8° |
| 2026-04-30 20:32 | 46.73668 | -2.08212 | 37143 ft | 471 kts | 8° |
| 2026-04-30 20:33 | 46.83373 | -2.05784 | 37141 ft | 471 kts | 8° |
| 2026-04-30 20:34 | 46.93073 | -2.03336 | 37143 ft | 471 kts | 9° |
| 2026-04-30 20:35 | 47.02784 | -2.00891 | 37143 ft | 472 kts | 9° |
| 2026-04-30 20:35 | 47.12489 | -1.98480 | 37131 ft | 471 kts | 9° |
| 2026-04-30 20:36 | 47.18914 | -1.96883 | 37132 ft | 472 kts | 9° |
| 2026-04-30 20:37 | 47.28638 | -1.94456 | 37132 ft | 473 kts | 9° |
| 2026-04-30 20:37 | 47.35156 | -1.93041 | 37128 ft | 472 kts | 2° |
| 2026-04-30 20:38 | 47.41716 | -1.93322 | 37132 ft | 473 kts | 355° |
| 2026-04-30 20:38 | 47.48284 | -1.94198 | 37132 ft | 473 kts | 354° |
| 2026-04-30 20:39 | 47.58132 | -1.95385 | 37136 ft | 474 kts | 355° |
| 2026-04-30 20:40 | 47.67916 | -1.94753 | 37129 ft | 474 kts | 16° |
| 2026-04-30 20:40 | 47.74132 | -1.91496 | 37133 ft | 475 kts | 21° |
| 2026-04-30 20:41 | 47.83417 | -1.86293 | 37130 ft | 475 kts | 20° |
| 2026-04-30 20:41 | 47.89658 | -1.83036 | 37130 ft | 475 kts | 19° |
| 2026-04-30 20:42 | 47.95916 | -1.79820 | 37129 ft | 476 kts | 19° |
| 2026-04-30 20:43 | 48.05314 | -1.75026 | 37129 ft | 476 kts | 16° |
| 2026-04-30 20:43 | 48.11858 | -1.73755 | 37130 ft | 476 kts | 360° |
| 2026-04-30 20:44 | 48.21755 | -1.74217 | 37131 ft | 476 kts | 358° |
| 2026-04-30 20:45 | 48.35031 | -1.74547 | 37127 ft | 477 kts | 359° |
| 2026-04-30 20:45 | 48.41678 | -1.74619 | 37125 ft | 477 kts | 359° |
| 2026-04-30 20:46 | 48.54973 | -1.74775 | 37121 ft | 478 kts | 359° |
| 2026-04-30 20:47 | 48.64951 | -1.74897 | 37117 ft | 478 kts | 359° |
| 2026-04-30 20:48 | 48.74945 | -1.75021 | 37116 ft | 479 kts | 359° |
| 2026-04-30 20:48 | 48.81612 | -1.75103 | 37113 ft | 479 kts | 359° |
| 2026-04-30 20:49 | 48.88238 | -1.75186 | 37116 ft | 479 kts | 359° |
| 2026-04-30 20:50 | 48.98207 | -1.74994 | 37113 ft | 479 kts | 1° |
| 2026-04-30 20:50 | 49.04871 | -1.74714 | 37118 ft | 479 kts | 1° |
| 2026-04-30 20:51 | 49.11547 | -1.74443 | 37115 ft | 480 kts | 1° |
| 2026-04-30 20:51 | 49.21577 | -1.74057 | 37111 ft | 480 kts | 1° |
| 2026-04-30 20:52 | 49.28254 | -1.73802 | 37116 ft | 480 kts | 1° |
| 2026-04-30 20:53 | 49.38295 | -1.73416 | 37118 ft | 481 kts | 1° |
| 2026-04-30 20:53 | 49.44949 | -1.73159 | 37121 ft | 481 kts | 1° |
| 2026-04-30 20:54 | 49.54984 | -1.72770 | 37124 ft | 482 kts | 1° |
| 2026-04-30 20:55 | 49.65052 | -1.72179 | 37128 ft | 482 kts | 3° |
| 2026-04-30 20:55 | 49.71756 | -1.71595 | 37126 ft | 482 kts | 3° |
| 2026-04-30 20:56 | 49.81826 | -1.70719 | 37073 ft | 482 kts | 3° |
| 2026-04-30 20:56 | 49.88478 | -1.70153 | 36498 ft | 477 kts | 3° |
| 2026-04-30 20:57 | 49.91752 | -1.69875 | 36039 ft | 476 kts | 3° |
| 2026-04-30 20:57 | 49.95060 | -1.69594 | 35460 ft | 475 kts | 3° |
| 2026-04-30 20:57 | 49.98363 | -1.69297 | 34903 ft | 475 kts | 5° |
| 2026-04-30 20:58 | 50.04862 | -1.67215 | 33728 ft | 478 kts | 17° |
| 2026-04-30 20:58 | 50.08035 | -1.65652 | 33110 ft | 479 kts | 19° |
| 2026-04-30 20:58 | 50.11200 | -1.64005 | 32520 ft | 480 kts | 19° |
| 2026-04-30 20:58 | 50.14382 | -1.62354 | 31939 ft | 482 kts | 19° |
| 2026-04-30 20:59 | 50.20788 | -1.59126 | 30765 ft | 485 kts | 19° |
| 2026-04-30 20:59 | 50.23966 | -1.57560 | 30210 ft | 485 kts | 18° |
| 2026-04-30 21:00 | 50.30432 | -1.54394 | 28861 ft | 486 kts | 19° |
| 2026-04-30 21:00 | 50.36844 | -1.51252 | 27592 ft | 478 kts | 19° |
| 2026-04-30 21:01 | 50.43122 | -1.48167 | 26375 ft | 471 kts | 19° |
| 2026-04-30 21:01 | 50.46239 | -1.46631 | 25783 ft | 468 kts | 20° |
| 2026-04-30 21:01 | 50.52418 | -1.43568 | 24579 ft | 462 kts | 21° |
| 2026-04-30 21:02 | 50.54404 | -1.42375 | 24191 ft | 459 kts | 26° |
| 2026-04-30 21:02 | 50.57279 | -1.40224 | 23523 ft | 455 kts | 31° |
| 2026-04-30 21:02 | 50.60045 | -1.37868 | 22814 ft | 450 kts | 33° |
| 2026-04-30 21:02 | 50.62752 | -1.35458 | 22161 ft | 445 kts | 33° |
| 2026-04-30 21:03 | 50.65431 | -1.33059 | 21563 ft | 440 kts | 33° |
| 2026-04-30 21:03 | 50.68088 | -1.30698 | 20944 ft | 437 kts | 33° |
| 2026-04-30 21:03 | 50.70730 | -1.28374 | 20318 ft | 433 kts | 33° |
| 2026-04-30 21:03 | 50.73350 | -1.26084 | 19730 ft | 429 kts | 32° |
| 2026-04-30 21:04 | 50.75946 | -1.23812 | 19163 ft | 424 kts | 33° |
| 2026-04-30 21:04 | 50.78464 | -1.21425 | 18594 ft | 419 kts | 36° |
| 2026-04-30 21:04 | 50.83295 | -1.16465 | 17000 ft | 409 kts | 37° |
| 2026-04-30 21:05 | 50.85663 | -1.13981 | 16225 ft | 405 kts | 37° |
| 2026-04-30 21:05 | 50.87999 | -1.11531 | 15470 ft | 402 kts | 37° |
| 2026-04-30 21:05 | 50.90292 | -1.09131 | 14762 ft | 398 kts | 37° |
| 2026-04-30 21:05 | 50.92624 | -1.06696 | 14050 ft | 395 kts | 37° |
| 2026-04-30 21:06 | 50.94907 | -1.04313 | 13309 ft | 391 kts | 36° |
| 2026-04-30 21:06 | 50.97140 | -1.01982 | 12603 ft | 386 kts | 36° |
| 2026-04-30 21:06 | 50.99370 | -0.99650 | 11901 ft | 381 kts | 36° |
| 2026-04-30 21:06 | 51.01718 | -0.97723 | 11172 ft | 380 kts | 22° |
| 2026-04-30 21:07 | 51.04226 | -0.96463 | 10538 ft | 377 kts | 17° |
| 2026-04-30 21:07 | 51.06745 | -0.95402 | 10180 ft | 375 kts | 15° |
| 2026-04-30 21:07 | 51.09238 | -0.94386 | 9793 ft | 361 kts | 15° |
| 2026-04-30 21:07 | 51.11606 | -0.93429 | 9442 ft | 339 kts | 15° |
| 2026-04-30 21:08 | 51.13813 | -0.92542 | 9322 ft | 315 kts | 15° |
| 2026-04-30 21:08 | 51.15884 | -0.91806 | 9047 ft | 299 kts | 8° |
| 2026-04-30 21:08 | 51.17945 | -0.91603 | 8456 ft | 296 kts | 1° |
| 2026-04-30 21:08 | 51.19991 | -0.91590 | 7883 ft | 293 kts | 0° |
| 2026-04-30 21:09 | 51.22013 | -0.91598 | 7449 ft | 286 kts | 0° |
| 2026-04-30 21:09 | 51.24002 | -0.91605 | 7077 ft | 285 kts | 0° |
| 2026-04-30 21:09 | 51.25981 | -0.91613 | 6719 ft | 283 kts | 0° |
| 2026-04-30 21:09 | 51.27956 | -0.91618 | 6347 ft | 284 kts | 0° |
| 2026-04-30 21:10 | 51.29897 | -0.91622 | 6023 ft | 280 kts | 0° |
| 2026-04-30 21:10 | 51.31827 | -0.91483 | 5948 ft | 279 kts | 13° |
| 2026-04-30 21:10 | 51.33627 | -0.90423 | 5759 ft | 275 kts | 27° |
| 2026-04-30 21:10 | 51.35326 | -0.89000 | 5333 ft | 275 kts | 30° |
| 2026-04-30 21:11 | 51.36992 | -0.87549 | 4965 ft | 267 kts | 30° |
| 2026-04-30 21:11 | 51.38578 | -0.86173 | 4594 ft | 249 kts | 31° |
| 2026-04-30 21:11 | 51.40058 | -0.84925 | 4198 ft | 233 kts | 31° |
| 2026-04-30 21:11 | 51.41444 | -0.83808 | 3973 ft | 212 kts | 31° |
| 2026-04-30 21:12 | 51.42734 | -0.82813 | 3949 ft | 204 kts | 30° |
| 2026-04-30 21:12 | 51.44006 | -0.81828 | 3953 ft | 202 kts | 35° |
| 2026-04-30 21:12 | 51.45073 | -0.80442 | 3963 ft | 197 kts | 50° |
| 2026-04-30 21:12 | 51.46050 | -0.78891 | 3953 ft | 197 kts | 53° |
| 2026-04-30 21:13 | 51.46655 | -0.77076 | 3578 ft | 173 kts | 91° |
| 2026-04-30 21:13 | 51.46579 | -0.75268 | 3226 ft | 160 kts | 104° |
| 2026-04-30 21:13 | 51.46478 | -0.73520 | 2986 ft | 155 kts | 100° |
| 2026-04-30 21:13 | 51.46420 | -0.71792 | 2975 ft | 155 kts | 99° |
| 2026-04-30 21:14 | 51.46403 | -0.70060 | 2959 ft | 156 kts | 97° |
| 2026-04-30 21:14 | 51.46415 | -0.68308 | 2808 ft | 158 kts | 96° |
| 2026-04-30 21:14 | 51.46431 | -0.66554 | 2305 ft | 156 kts | 97° |
| 2026-04-30 21:14 | 51.46446 | -0.64848 | 1754 ft | 150 kts | 96° |
| 2026-04-30 21:15 | 51.46448 | -0.63173 | 1446 ft | 150 kts | 95° |
| 2026-04-30 21:15 | 51.46440 | -0.61502 | 1244 ft | 150 kts | 95° |
| 2026-04-30 21:15 | 51.46422 | -0.59819 | 1088 ft | 151 kts | 93° |
| 2026-04-30 21:15 | 51.46428 | -0.58124 | 929 ft | 154 kts | 91° |
| 2026-04-30 21:16 | 51.46442 | -0.56394 | 822 ft | 156 kts | 91° |
| 2026-04-30 21:16 | 51.46450 | -0.54648 | 744 ft | 157 kts | 90° |
| 2026-04-30 21:16 | 51.46459 | -0.52895 | 641 ft | 158 kts | 90° |
| 2026-04-30 21:16 | 51.46472 | -0.51135 | 458 ft | 158 kts | 89° |
| 2026-04-30 21:17 | 51.46472 | -0.49401 | 218 ft | 157 kts | 89° |
| 2026-04-30 21:17 | 51.46484 | -0.47652 | 96 ft | 147 kts | 89° |
| 2026-04-30 21:17 | 51.46487 | -0.46236 | 98 ft | 111 kts | 89° |
| 2026-04-30 21:17 | 51.46487 | -0.45284 | 97 ft | 52 kts | 92° |
| 2026-04-30 21:18 | 51.46433 | -0.44973 | 99 ft | 7 kts | 114° |
| 2026-04-30 21:18 | 51.46431 | -0.44968 | 95 ft | 0 kts | 114° |
| 2026-04-30 21:18 | 51.46431 | -0.44967 | 95 ft | 1 kts | 114° |
| 2026-04-30 21:18 | 51.46419 | -0.44932 | 97 ft | 6 kts | 121° |
| 2026-04-30 21:19 | 51.46372 | -0.44887 | 97 ft | 8 kts | 176° |
| 2026-04-30 21:19 | 51.46332 | -0.44936 | 97 ft | 8 kts | 240° |
| 2026-04-30 21:19 | 51.46318 | -0.45049 | 97 ft | 12 kts | 263° |
| 2026-04-30 21:19 | 51.46316 | -0.45175 | 96 ft | 11 kts | 271° |
| 2026-04-30 21:20 | 51.46319 | -0.45284 | 96 ft | 9 kts | 271° |
| 2026-04-30 21:20 | 51.46319 | -0.45383 | 96 ft | 10 kts | 269° |
| 2026-04-30 21:20 | 51.46318 | -0.45515 | 97 ft | 13 kts | 269° |
| 2026-04-30 21:20 | 51.46322 | -0.45656 | 95 ft | 12 kts | 275° |
| 2026-04-30 21:21 | 51.46324 | -0.45797 | 94 ft | 15 kts | 270° |
| 2026-04-30 21:21 | 51.46324 | -0.45981 | 94 ft | 18 kts | 269° |
| 2026-04-30 21:21 | 51.46321 | -0.46356 | 96 ft | 15 kts | 269° |
| 2026-04-30 21:22 | 51.46320 | -0.46519 | 96 ft | 15 kts | 270° |
| 2026-04-30 21:22 | 51.46323 | -0.46981 | 94 ft | 11 kts | 270° |
| 2026-04-30 21:23 | 51.46322 | -0.47098 | 94 ft | 10 kts | 268° |
| 2026-04-30 21:23 | 51.46313 | -0.47216 | 96 ft | 10 kts | 243° |
| 2026-04-30 21:23 | 51.46209 | -0.47265 | 94 ft | 7 kts | 186° |
| 2026-04-30 21:24 | 51.46170 | -0.47279 | 94 ft | 5 kts | 200° |
| 2026-04-30 21:24 | 51.46145 | -0.47304 | 97 ft | 3 kts | 217° |
| 2026-04-30 21:24 | 51.46134 | -0.47324 | 95 ft | 2 kts | 230° |
| 2026-04-30 21:24 | 51.46121 | -0.47352 | 96 ft | 5 kts | 233° |
| 2026-04-30 21:25 | 51.46102 | -0.47393 | 94 ft | 0 kts | 233° |